createdAt,value
2022-08-11T00:01:25.731Z,21.80
2022-08-11T00:05:27.637Z,21.60
2022-08-11T00:09:39.302Z,21.60
2022-08-11T00:13:48.458Z,21.60
2022-08-11T00:17:56.285Z,21.60
2022-08-11T00:22:05.000Z,21.50
2022-08-11T00:26:08.752Z,21.20
2022-08-11T00:30:13.130Z,21.20
2022-08-11T00:34:18.633Z,21.00
2022-08-11T00:38:25.958Z,20.60
2022-08-11T00:43:10.776Z,20.50
2022-08-11T00:47:37.949Z,20.60
2022-08-11T00:52:13.575Z,20.50
2022-08-11T00:56:43.583Z,20.20
2022-08-11T01:01:06.690Z,20.30
2022-08-11T01:05:37.979Z,20.60
2022-08-11T01:09:58.610Z,20.60
2022-08-11T01:14:12.494Z,20.80
2022-08-11T01:18:39.061Z,20.80
2022-08-11T01:22:59.320Z,20.50
2022-08-11T01:27:18.827Z,20.30
2022-08-11T01:31:49.729Z,20.50
2022-08-11T01:36:10.335Z,20.50
2022-08-11T01:40:38.513Z,20.20
2022-08-11T01:44:48.917Z,20.40
2022-08-11T01:49:29.140Z,20.10
2022-08-11T01:53:35.765Z,20.30
2022-08-11T01:57:50.650Z,20.40
2022-08-11T02:02:21.324Z,20.20
2022-08-11T02:06:58.201Z,20.30
2022-08-11T02:11:30.406Z,20.10
2022-08-11T02:15:42.049Z,20.00
2022-08-11T02:20:19.747Z,19.90
2022-08-11T02:24:29.828Z,20.10
2022-08-11T02:28:46.446Z,20.10
2022-08-11T02:33:25.397Z,20.20
2022-08-11T02:37:32.207Z,20.30
2022-08-11T02:42:31.643Z,20.40
2022-08-11T02:46:40.795Z,20.20
2022-08-11T02:51:10.553Z,20.00
2022-08-11T02:55:48.047Z,19.80
2022-08-11T02:59:53.682Z,19.70
2022-08-11T03:04:13.715Z,19.80
2022-08-11T03:08:40.040Z,20.00
2022-08-11T03:13:04.283Z,19.90
2022-08-11T03:17:28.676Z,19.90
2022-08-11T03:22:01.470Z,19.80
2022-08-11T03:26:26.962Z,19.80
2022-08-11T03:31:07.980Z,19.70
2022-08-11T03:35:11.540Z,19.50
2022-08-11T03:39:56.462Z,19.40
2022-08-11T03:44:29.481Z,19.40
2022-08-11T03:48:57.189Z,19.40
2022-08-11T03:53:28.051Z,19.10
2022-08-11T03:58:20.937Z,19.10
2022-08-11T04:02:28.399Z,19.40
2022-08-11T04:06:32.905Z,19.30
2022-08-11T04:11:12.053Z,19.30
2022-08-11T04:16:12.086Z,19.20
2022-08-11T04:20:32.314Z,19.00
2022-08-11T04:25:10.570Z,19.20
2022-08-11T04:30:09.003Z,19.20
2022-08-11T04:34:37.004Z,19.40
2022-08-11T04:38:44.399Z,19.40
2022-08-11T04:43:22.768Z,19.50
2022-08-11T04:48:11.704Z,19.40
2022-08-11T04:53:00.925Z,19.40
2022-08-11T04:57:30.208Z,19.50
2022-08-11T05:02:02.997Z,19.40
2022-08-11T05:06:28.190Z,19.60
2022-08-11T05:10:50.184Z,19.70
2022-08-11T05:15:12.036Z,19.90
2022-08-11T05:19:38.259Z,20.10
2022-08-11T05:24:07.447Z,20.30
2022-08-11T05:28:35.570Z,20.40
2022-08-11T05:33:02.043Z,20.70
2022-08-11T05:37:26.185Z,20.70
2022-08-11T05:41:50.251Z,20.80
2022-08-11T05:46:25.165Z,21.30
2022-08-11T05:50:46.759Z,21.50
2022-08-11T05:55:08.810Z,21.50
2022-08-11T05:59:16.382Z,21.60
2022-08-11T06:03:28.548Z,22.00
2022-08-11T06:07:47.205Z,22.30
2022-08-11T06:11:51.737Z,22.80
2022-08-11T06:15:55.816Z,22.90
2022-08-11T06:20:07.644Z,23.00
2022-08-11T06:24:14.441Z,22.60
2022-08-11T06:28:21.011Z,23.00
2022-08-11T06:32:32.503Z,23.30
2022-08-11T06:36:57.976Z,23.40
2022-08-11T06:41:30.395Z,23.20
2022-08-11T06:45:51.219Z,23.60
2022-08-11T06:50:16.456Z,23.70
2022-08-11T06:54:18.544Z,23.80
2022-08-11T06:58:41.033Z,23.80
2022-08-11T07:02:53.220Z,24.10
2022-08-11T07:07:26.199Z,24.00
2022-08-11T07:12:05.297Z,24.20
2022-08-11T07:16:13.166Z,24.20
2022-08-11T07:20:36.193Z,24.20
2022-08-11T07:25:20.053Z,24.30
2022-08-11T07:29:23.070Z,24.40
2022-08-11T07:34:07.268Z,24.50
2022-08-11T07:38:01.783Z,24.90
2022-08-11T07:42:10.815Z,24.20
2022-08-11T07:46:31.685Z,24.40
2022-08-11T07:50:55.991Z,24.60
2022-08-11T07:55:10.311Z,24.60
2022-08-11T08:00:00.561Z,24.60
2022-08-11T08:04:12.295Z,24.50
2022-08-11T08:08:34.558Z,24.70
2022-08-11T08:12:55.442Z,25.20
2022-08-11T08:17:16.978Z,25.30
2022-08-11T08:21:19.026Z,25.00
2022-08-11T08:25:20.829Z,25.00
2022-08-11T08:29:41.646Z,25.00
2022-08-11T08:33:43.746Z,25.40
2022-08-11T08:37:47.674Z,25.70
2022-08-11T08:41:54.452Z,25.60
2022-08-11T08:45:57.139Z,25.60
2022-08-11T08:50:21.397Z,24.40
2022-08-11T08:54:42.209Z,25.30
2022-08-11T08:58:48.343Z,25.00
2022-08-11T09:02:53.673Z,24.80
2022-08-11T09:06:59.025Z,25.10
2022-08-11T09:11:21.444Z,25.40
2022-08-11T09:15:24.354Z,25.70
2022-08-11T09:19:26.865Z,25.40
2022-08-11T09:24:08.940Z,25.60
2022-08-11T09:28:13.997Z,26.20
2022-08-11T09:32:21.173Z,25.90
2022-08-11T09:36:42.349Z,26.30
2022-08-11T09:40:56.169Z,26.00
2022-08-11T09:45:00.932Z,26.00
2022-08-11T09:49:05.101Z,26.50
2022-08-11T09:53:36.827Z,26.20
2022-08-11T09:57:48.507Z,26.20
2022-08-11T10:01:57.047Z,26.60
2022-08-11T10:06:34.490Z,26.60
2022-08-11T10:10:38.971Z,26.90
2022-08-11T10:15:09.630Z,26.80
2022-08-11T10:19:11.853Z,26.90
2022-08-11T10:23:32.773Z,27.10
2022-08-11T10:28:16.952Z,26.90
2022-08-11T10:32:17.434Z,26.30
2022-08-11T10:36:20.655Z,26.60
2022-08-11T10:40:23.942Z,27.20
2022-08-11T10:44:26.183Z,27.50
2022-08-11T10:48:38.629Z,27.20
2022-08-11T10:53:05.031Z,27.30
2022-08-11T10:57:25.832Z,27.50
2022-08-11T11:01:39.165Z,27.40
2022-08-11T11:06:28.757Z,27.30
2022-08-11T11:10:07.024Z,27.60
2022-08-11T11:14:36.469Z,26.80
2022-08-11T11:19:00.878Z,27.60
2022-08-11T11:23:19.944Z,27.90
2022-08-11T11:27:27.293Z,28.10
2022-08-11T11:31:59.151Z,28.00
2022-08-11T11:36:01.113Z,28.40
2022-08-11T11:40:13.199Z,28.40
2022-08-11T11:44:15.809Z,28.50
2022-08-11T11:48:17.983Z,28.30
2022-08-11T11:52:21.806Z,28.10
2022-08-11T11:56:25.983Z,28.60
2022-08-11T12:00:48.216Z,28.60
2022-08-11T12:04:51.277Z,28.40
2022-08-11T12:08:56.305Z,28.70
2022-08-11T12:13:20.600Z,28.60
2022-08-11T12:17:22.911Z,28.50
2022-08-11T12:21:26.182Z,28.80
2022-08-11T12:25:46.341Z,28.60
2022-08-11T12:29:57.077Z,28.70
2022-08-11T12:34:07.900Z,28.70
2022-08-11T12:38:12.669Z,29.00
2022-08-11T12:42:37.038Z,29.20
2022-08-11T12:46:44.639Z,28.80
2022-08-11T12:51:09.144Z,29.00
2022-08-11T12:55:34.674Z,29.10
2022-08-11T12:59:58.012Z,28.90
2022-08-11T13:04:18.732Z,29.20
2022-08-11T13:08:25.159Z,29.40
2022-08-11T13:12:47.899Z,29.70
2022-08-11T13:17:08.952Z,29.90
2022-08-11T13:21:20.716Z,29.50
2022-08-11T13:25:26.637Z,29.30
2022-08-11T13:29:32.666Z,29.20
2022-08-11T13:33:40.113Z,29.50
2022-08-11T13:38:19.449Z,29.50
2022-08-11T13:42:07.907Z,29.60
2022-08-11T13:46:24.275Z,29.70
2022-08-11T13:50:51.551Z,29.80
2022-08-11T13:54:53.744Z,29.60
2022-08-11T13:58:57.157Z,29.20
2022-08-11T14:02:59.793Z,29.60
2022-08-11T14:07:08.701Z,30.10
2022-08-11T14:12:23.644Z,30.20
2022-08-11T14:15:53.739Z,29.80
2022-08-11T14:19:56.107Z,29.50
2022-08-11T14:24:01.478Z,29.50
2022-08-11T14:28:33.009Z,30.00
2022-08-11T14:32:28.120Z,29.80
2022-08-11T14:36:34.057Z,30.10
2022-08-11T14:40:54.495Z,29.80
2022-08-11T14:45:22.700Z,29.90
2022-08-11T14:49:27.612Z,29.90
2022-08-11T14:53:29.429Z,30.00
2022-08-11T14:57:55.044Z,29.70
2022-08-11T15:02:15.954Z,29.90
2022-08-11T15:06:18.231Z,29.40
2022-08-11T15:10:21.155Z,29.70
2022-08-11T15:14:42.040Z,29.80
2022-08-11T15:18:44.035Z,29.80
2022-08-11T15:23:04.183Z,30.10
2022-08-11T15:27:33.513Z,29.80
2022-08-11T15:31:56.321Z,29.90
2022-08-11T15:36:21.513Z,29.90
2022-08-11T15:40:45.850Z,30.00
2022-08-11T15:45:18.889Z,29.90
2022-08-11T15:50:10.601Z,29.50
2022-08-11T15:54:09.294Z,30.10
2022-08-11T15:58:31.410Z,30.60
2022-08-11T16:02:52.395Z,30.10
2022-08-11T16:07:26.648Z,29.90
2022-08-11T16:11:29.560Z,30.10
2022-08-11T16:15:54.340Z,30.30
2022-08-11T16:19:58.743Z,30.40
2022-08-11T16:24:02.268Z,30.10
2022-08-11T16:28:06.640Z,30.00
2022-08-11T16:32:17.298Z,30.00
2022-08-11T16:36:40.081Z,29.60
2022-08-11T16:40:46.982Z,29.90
2022-08-11T16:45:07.505Z,30.10
2022-08-11T16:49:38.105Z,30.10
2022-08-11T16:53:54.718Z,30.50
2022-08-11T16:58:26.234Z,30.20
2022-08-11T17:02:53.630Z,30.20
2022-08-11T17:07:23.671Z,30.20
2022-08-11T17:12:09.852Z,30.30
2022-08-11T17:16:24.945Z,29.90
2022-08-11T17:20:40.336Z,29.60
2022-08-11T17:24:47.508Z,29.90
2022-08-11T17:28:56.525Z,30.10
2022-08-11T17:33:19.637Z,30.20
2022-08-11T17:37:23.276Z,30.00
2022-08-11T17:41:43.811Z,30.00
2022-08-11T17:46:05.283Z,30.10
2022-08-11T17:50:17.189Z,30.10
2022-08-11T17:54:40.299Z,30.00
2022-08-11T17:59:03.070Z,29.90
2022-08-11T18:03:25.963Z,29.80
2022-08-11T18:07:46.738Z,29.50
2022-08-11T18:12:13.038Z,28.80
2022-08-11T18:16:33.835Z,29.10
2022-08-11T18:20:55.468Z,29.20
2022-08-11T18:25:32.993Z,29.00
2022-08-11T18:29:55.031Z,29.00
2022-08-11T18:34:20.468Z,28.60
2022-08-11T18:38:44.634Z,28.40
2022-08-11T18:43:08.029Z,28.30
2022-08-11T18:47:32.614Z,28.40
2022-08-11T18:52:02.900Z,28.40
2022-08-11T18:56:24.494Z,28.10
2022-08-11T19:00:46.282Z,27.90
2022-08-11T19:05:07.574Z,27.80
2022-08-11T19:09:33.270Z,27.40
2022-08-11T19:13:55.305Z,27.40
2022-08-11T19:18:17.808Z,26.90
2022-08-11T19:22:39.351Z,26.40
2022-08-11T19:27:01.717Z,26.40
2022-08-11T19:31:22.941Z,26.30
2022-08-11T19:35:44.145Z,25.70
2022-08-11T19:40:08.019Z,25.70
2022-08-11T19:44:30.662Z,25.70
2022-08-11T19:48:52.471Z,25.60
2022-08-11T19:53:16.993Z,25.70
2022-08-11T19:57:40.671Z,25.60
2022-08-11T20:02:13.577Z,25.60
2022-08-11T20:06:36.491Z,25.50
2022-08-11T20:10:57.721Z,25.20
2022-08-11T20:15:19.771Z,25.20
2022-08-11T20:19:55.464Z,24.90
2022-08-11T20:24:19.753Z,24.60
2022-08-11T20:28:40.455Z,24.70
2022-08-11T20:33:01.748Z,24.90
2022-08-11T20:37:23.678Z,24.90
2022-08-11T20:41:58.950Z,24.80
2022-08-11T20:46:21.431Z,24.50
2022-08-11T20:50:45.663Z,24.60
2022-08-11T20:55:10.898Z,24.40
2022-08-11T20:59:56.677Z,24.40
2022-08-11T21:04:17.343Z,24.20
2022-08-11T21:08:46.857Z,24.00
2022-08-11T21:13:24.016Z,23.80
2022-08-11T21:18:00.901Z,23.50
2022-08-11T21:22:34.443Z,23.50
2022-08-11T21:27:03.298Z,23.60
2022-08-11T21:31:27.692Z,23.50
2022-08-11T21:35:48.352Z,23.30
2022-08-11T21:40:14.868Z,23.40
2022-08-11T21:44:38.054Z,23.20
2022-08-11T21:48:59.149Z,23.00
2022-08-11T21:53:20.548Z,22.70
2022-08-11T21:57:48.173Z,22.90
2022-08-11T22:02:12.841Z,22.80
2022-08-11T22:06:35.642Z,22.70
2022-08-11T22:10:56.929Z,22.40
2022-08-11T22:15:23.162Z,22.50
2022-08-11T22:19:43.748Z,22.60
2022-08-11T22:24:05.221Z,22.70
2022-08-11T22:28:28.714Z,22.80
2022-08-11T22:32:49.618Z,22.60
2022-08-11T22:37:10.449Z,22.70
2022-08-11T22:41:47.958Z,22.40
2022-08-11T22:46:08.222Z,21.90
2022-08-11T22:50:29.252Z,22.10
2022-08-11T22:54:52.055Z,22.10
2022-08-11T22:59:13.721Z,22.00
2022-08-11T23:03:37.889Z,22.00
2022-08-11T23:07:59.967Z,22.00
2022-08-11T23:12:21.183Z,22.10
2022-08-11T23:16:42.678Z,22.20
2022-08-11T23:21:04.229Z,22.40
2022-08-11T23:25:25.175Z,22.50
2022-08-11T23:29:46.553Z,22.10
2022-08-11T23:34:39.470Z,22.10
2022-08-11T23:38:52.776Z,21.90
2022-08-11T23:43:14.210Z,21.90
2022-08-11T23:47:34.864Z,21.30
2022-08-11T23:52:11.345Z,20.70
2022-08-11T23:56:33.537Z,20.90
